createdAt,value
2022-09-12T00:00:10.709Z,19.57
2022-09-12T00:02:37.373Z,19.61
2022-09-12T00:05:04.273Z,19.64
2022-09-12T00:07:30.645Z,19.75
2022-09-12T00:09:57.190Z,19.83
2022-09-12T00:12:23.604Z,19.76
2022-09-12T00:14:50.004Z,19.78
2022-09-12T00:17:16.407Z,19.78
2022-09-12T00:19:42.872Z,19.62
2022-09-12T00:22:09.343Z,19.51
2022-09-12T00:24:35.717Z,19.47
2022-09-12T00:27:02.090Z,19.30
2022-09-12T00:29:28.509Z,19.09
2022-09-12T00:31:54.971Z,18.99
2022-09-12T00:34:21.393Z,18.98
2022-09-12T00:36:47.840Z,19.04
2022-09-12T00:39:17.802Z,19.07
2022-09-12T00:41:44.676Z,19.26
2022-09-12T00:44:17.069Z,19.32
2022-09-12T00:46:54.762Z,19.44
2022-09-12T00:49:29.428Z,19.46
2022-09-12T00:52:10.809Z,19.47
2022-09-12T00:54:57.204Z,19.48
2022-09-12T00:57:27.949Z,19.49
2022-09-12T00:59:59.366Z,19.42
2022-09-12T01:02:26.498Z,19.37
2022-09-12T01:04:53.204Z,19.29
2022-09-12T01:07:21.112Z,19.27
2022-09-12T01:09:47.873Z,19.21
2022-09-12T01:12:15.467Z,19.13
2022-09-12T01:14:41.977Z,19.13
2022-09-12T01:17:12.246Z,19.19
2022-09-12T01:20:05.312Z,19.17
2022-09-12T01:22:53.285Z,19.27
2022-09-12T01:25:22.608Z,19.24
2022-09-12T01:28:04.227Z,19.20
2022-09-12T01:30:42.588Z,19.20
2022-09-12T01:33:24.206Z,19.21
2022-09-12T01:36:11.296Z,19.16
2022-09-12T01:39:00.093Z,19.06
2022-09-12T01:41:38.679Z,18.98
2022-09-12T01:44:12.888Z,19.11
2022-09-12T01:46:49.198Z,19.12
2022-09-12T01:49:24.558Z,19.07
2022-09-12T01:52:10.645Z,19.05
2022-09-12T01:54:45.927Z,18.94
2022-09-12T01:57:25.594Z,19.00
2022-09-12T01:59:57.334Z,18.94
2022-09-12T02:02:35.450Z,18.90
2022-09-12T02:05:10.774Z,18.89
2022-09-12T02:07:52.036Z,18.95
2022-09-12T02:10:27.125Z,18.91
2022-09-12T02:13:07.122Z,18.84
2022-09-12T02:15:38.368Z,18.78
2022-09-12T02:18:06.512Z,18.86
2022-09-12T02:20:54.617Z,18.85
2022-09-12T02:23:26.376Z,18.71
2022-09-12T02:25:57.717Z,18.53
2022-09-12T02:28:38.305Z,18.41
2022-09-12T02:31:23.529Z,18.36
2022-09-12T02:34:29.044Z,18.30
2022-09-12T02:37:05.776Z,18.38
2022-09-12T02:39:32.773Z,18.44
2022-09-12T02:42:02.012Z,18.55
2022-09-12T02:44:30.384Z,18.66
2022-09-12T02:47:04.164Z,18.51
2022-09-12T02:49:30.787Z,18.31
2022-09-12T02:51:57.396Z,18.26
2022-09-12T02:54:24.948Z,18.09
2022-09-12T02:56:51.688Z,18.03
2022-09-12T02:59:20.571Z,18.10
2022-09-12T03:02:05.159Z,18.02
2022-09-12T03:04:44.461Z,17.92
2022-09-12T03:07:25.624Z,17.83
2022-09-12T03:10:22.695Z,17.81
2022-09-12T03:12:55.857Z,17.79
2022-09-12T03:15:51.802Z,17.75
2022-09-12T03:18:31.630Z,17.61
2022-09-12T03:21:10.186Z,17.46
2022-09-12T03:24:10.570Z,17.33
2022-09-12T03:26:52.661Z,17.30
2022-09-12T03:29:20.213Z,17.33
2022-09-12T03:31:55.233Z,17.34
2022-09-12T03:34:23.164Z,17.39
2022-09-12T03:36:50.330Z,17.50
2022-09-12T03:39:17.132Z,17.63
2022-09-12T03:41:44.058Z,17.53
2022-09-12T03:44:10.445Z,17.42
2022-09-12T03:46:36.915Z,17.28
2022-09-12T03:49:03.451Z,17.27
2022-09-12T03:51:29.956Z,17.31
2022-09-12T03:53:56.377Z,17.31
2022-09-12T03:56:22.836Z,17.32
2022-09-12T03:58:49.372Z,17.33
2022-09-12T04:01:18.350Z,17.42
2022-09-12T04:03:49.909Z,17.56
2022-09-12T04:06:18.916Z,17.64
2022-09-12T04:08:49.021Z,17.56
2022-09-12T04:11:16.425Z,17.45
2022-09-12T04:13:44.791Z,17.38
2022-09-12T04:16:12.819Z,17.37
2022-09-12T04:18:39.967Z,17.34
2022-09-12T04:21:12.189Z,17.33
2022-09-12T04:23:38.664Z,17.49
2022-09-12T04:26:07.591Z,17.40
2022-09-12T04:28:35.991Z,17.31
2022-09-12T04:31:06.009Z,17.43
2022-09-12T04:33:32.474Z,17.53
2022-09-12T04:36:07.534Z,17.47
2022-09-12T04:38:34.955Z,17.55
2022-09-12T04:41:01.485Z,17.58
2022-09-12T04:43:28.023Z,17.42
2022-09-12T04:45:55.476Z,17.33
2022-09-12T04:48:21.909Z,17.30
2022-09-12T04:50:48.295Z,17.29
2022-09-12T04:53:14.674Z,17.27
2022-09-12T04:55:41.117Z,17.17
2022-09-12T04:58:07.513Z,17.05
2022-09-12T05:00:34.825Z,16.93
2022-09-12T05:03:01.312Z,16.88
2022-09-12T05:05:27.698Z,16.88
2022-09-12T05:07:54.128Z,16.85
2022-09-12T05:10:20.553Z,16.85
2022-09-12T05:12:47.258Z,17.02
2022-09-12T05:15:13.714Z,17.25
2022-09-12T05:17:40.105Z,17.33
2022-09-12T05:20:07.004Z,17.48
2022-09-12T05:22:33.407Z,17.56
2022-09-12T05:24:59.825Z,17.52
2022-09-12T05:27:26.221Z,17.51
2022-09-12T05:29:52.617Z,17.54
2022-09-12T05:32:19.047Z,17.53
2022-09-12T05:34:45.576Z,17.57
2022-09-12T05:37:12.982Z,17.69
2022-09-12T05:39:39.482Z,17.73
2022-09-12T05:42:06.082Z,17.74
2022-09-12T05:44:33.225Z,17.76
2022-09-12T05:46:59.637Z,17.60
2022-09-12T05:49:26.139Z,17.72
2022-09-12T05:51:52.694Z,17.75
2022-09-12T05:54:20.454Z,17.85
2022-09-12T05:56:48.280Z,17.88
2022-09-12T05:59:17.695Z,17.91
2022-09-12T06:01:44.676Z,17.90
2022-09-12T06:04:12.055Z,17.92
2022-09-12T06:06:45.027Z,18.00
2022-09-12T06:09:12.594Z,18.09
2022-09-12T06:11:42.617Z,18.21
2022-09-12T06:14:11.445Z,18.29
2022-09-12T06:16:39.158Z,18.23
2022-09-12T06:19:16.013Z,18.19
2022-09-12T06:21:42.578Z,18.21
2022-09-12T06:24:09.240Z,18.23
2022-09-12T06:26:36.380Z,18.22
2022-09-12T06:29:03.324Z,18.20
2022-09-12T06:31:33.489Z,18.28
2022-09-12T06:34:02.308Z,18.34
2022-09-12T06:36:32.081Z,18.52
2022-09-12T06:39:01.070Z,18.85
2022-09-12T06:41:29.021Z,19.06
2022-09-12T06:43:55.581Z,19.12
2022-09-12T06:46:22.126Z,19.50
2022-09-12T06:48:50.552Z,19.85
2022-09-12T06:51:18.857Z,19.72
2022-09-12T06:53:46.654Z,19.47
2022-09-12T06:56:21.627Z,19.62
2022-09-12T06:58:49.946Z,19.69
2022-09-12T07:01:16.582Z,19.92
2022-09-12T07:03:47.095Z,20.12
2022-09-12T07:06:15.164Z,20.22
2022-09-12T07:08:41.919Z,20.26
2022-09-12T07:11:11.488Z,20.13
2022-09-12T07:13:39.248Z,20.25
2022-09-12T07:16:06.240Z,20.18
2022-09-12T07:18:34.737Z,20.10
2022-09-12T07:21:02.587Z,20.08
2022-09-12T07:23:30.276Z,20.07
2022-09-12T07:26:01.146Z,20.34
2022-09-12T07:28:28.575Z,20.49
2022-09-12T07:30:56.168Z,20.48
2022-09-12T07:33:29.431Z,20.57
2022-09-12T07:36:00.391Z,20.68
2022-09-12T07:38:26.687Z,20.48
2022-09-12T07:40:53.486Z,20.38
2022-09-12T07:43:19.889Z,20.40
2022-09-12T07:45:46.539Z,20.68
2022-09-12T07:48:13.885Z,20.95
2022-09-12T07:50:44.985Z,20.96
2022-09-12T07:53:12.690Z,21.19
2022-09-12T07:55:39.341Z,21.32
2022-09-12T07:58:05.729Z,21.22
2022-09-12T08:00:35.897Z,21.27
2022-09-12T08:03:07.192Z,21.40
2022-09-12T08:05:33.618Z,21.46
2022-09-12T08:08:00.041Z,21.51
2022-09-12T08:10:26.422Z,21.70
2022-09-12T08:12:52.912Z,21.95
2022-09-12T08:15:20.249Z,21.85
2022-09-12T08:17:46.648Z,21.86
2022-09-12T08:20:13.145Z,21.99
2022-09-12T08:22:40.666Z,22.13
2022-09-12T08:25:08.628Z,22.11
2022-09-12T08:27:35.075Z,22.14
2022-09-12T08:30:01.762Z,22.18
2022-09-12T08:32:28.151Z,22.11
2022-09-12T08:34:54.616Z,22.28
2022-09-12T08:37:21.236Z,22.43
2022-09-12T08:39:47.779Z,22.39
2022-09-12T08:42:30.160Z,22.33
2022-09-12T08:45:30.836Z,22.23
2022-09-12T08:47:57.648Z,22.41
2022-09-12T08:50:24.049Z,22.59
2022-09-12T08:52:56.704Z,22.59
2022-09-12T08:55:58.557Z,22.80
2022-09-12T08:58:27.938Z,22.89
2022-09-12T09:01:22.142Z,22.99
2022-09-12T09:04:03.896Z,23.15
2022-09-12T09:07:15.735Z,23.25
2022-09-12T09:10:08.276Z,23.27
2022-09-12T09:12:52.793Z,23.18
2022-09-12T09:15:24.702Z,23.30
2022-09-12T09:17:54.989Z,23.57
2022-09-12T09:20:39.943Z,23.78
2022-09-12T09:23:12.837Z,23.95
2022-09-12T09:25:58.018Z,23.82
2022-09-12T09:28:39.489Z,24.08
2022-09-12T09:31:14.953Z,24.33
2022-09-12T09:33:41.436Z,24.50
2022-09-12T09:36:18.302Z,24.42
2022-09-12T09:39:30.040Z,24.29
2022-09-12T09:42:21.411Z,24.41
2022-09-12T09:44:49.099Z,24.56
2022-09-12T09:47:18.184Z,24.62
2022-09-12T09:49:44.659Z,24.68
2022-09-12T09:52:16.129Z,24.57
2022-09-12T09:54:53.218Z,24.67
2022-09-12T09:57:39.362Z,24.68
2022-09-12T10:00:32.863Z,24.64
2022-09-12T10:03:14.403Z,24.72
2022-09-12T10:06:03.866Z,24.76
2022-09-12T10:08:32.484Z,24.87
2022-09-12T10:11:20.795Z,24.94
2022-09-12T10:13:59.897Z,24.92
2022-09-12T10:16:34.859Z,25.05
2022-09-12T10:19:03.093Z,25.09
2022-09-12T10:21:41.317Z,25.13
2022-09-12T10:24:32.821Z,25.04
2022-09-12T10:27:08.515Z,25.17
2022-09-12T10:30:00.239Z,25.21
2022-09-12T10:32:30.980Z,25.41
2022-09-12T10:35:04.153Z,25.48
2022-09-12T10:37:34.768Z,25.50
2022-09-12T10:40:03.913Z,25.32
2022-09-12T10:42:49.511Z,25.25
2022-09-12T10:45:30.866Z,25.30
2022-09-12T10:48:06.861Z,25.24
2022-09-12T10:50:42.152Z,25.47
2022-09-12T10:53:33.608Z,25.82
2022-09-12T10:56:13.485Z,25.98
2022-09-12T10:58:49.405Z,26.02
2022-09-12T11:01:37.267Z,26.09
2022-09-12T11:04:18.757Z,26.33
2022-09-12T11:07:33.271Z,26.35
2022-09-12T11:10:21.710Z,26.32
2022-09-12T11:13:23.392Z,26.00
2022-09-12T11:16:08.317Z,26.02
2022-09-12T11:19:12.173Z,26.38
2022-09-12T11:21:38.506Z,26.19
2022-09-12T11:24:26.629Z,26.23
2022-09-12T11:27:08.054Z,26.15
2022-09-12T11:29:40.072Z,26.26
2022-09-12T11:32:25.273Z,26.33
2022-09-12T11:35:12.850Z,26.34
2022-09-12T11:37:52.253Z,26.30
2022-09-12T11:40:54.304Z,26.29
2022-09-12T11:43:25.036Z,26.51
2022-09-12T11:45:52.439Z,26.77
2022-09-12T11:48:28.051Z,26.68
2022-09-12T11:50:54.954Z,26.80
2022-09-12T11:53:31.844Z,26.95
2022-09-12T11:56:11.990Z,26.96
2022-09-12T11:58:41.498Z,26.96
2022-09-12T12:01:36.265Z,27.01
2022-09-12T12:04:11.560Z,26.87
2022-09-12T12:06:53.958Z,26.77
2022-09-12T12:09:20.644Z,26.70
2022-09-12T12:11:56.014Z,26.62
2022-09-12T12:14:33.111Z,26.65
2022-09-12T12:16:59.768Z,26.63
2022-09-12T12:19:37.604Z,26.83
2022-09-12T12:22:16.652Z,27.01
2022-09-12T12:25:04.941Z,27.04
2022-09-12T12:27:53.225Z,27.01
2022-09-12T12:30:31.682Z,26.83
2022-09-12T12:33:02.739Z,26.80
2022-09-12T12:35:59.691Z,26.99
2022-09-12T12:38:32.429Z,26.94
2022-09-12T12:41:16.988Z,26.99
2022-09-12T12:43:45.855Z,26.88
2022-09-12T12:46:18.173Z,26.72
2022-09-12T12:49:02.060Z,26.92
2022-09-12T12:51:34.580Z,26.96
2022-09-12T12:54:03.745Z,27.10
2022-09-12T12:56:40.513Z,27.22
2022-09-12T12:59:17.815Z,27.16
2022-09-12T13:01:51.517Z,27.21
2022-09-12T13:04:24.988Z,27.33
2022-09-12T13:07:32.211Z,27.19
2022-09-12T13:10:00.600Z,27.15
2022-09-12T13:12:35.615Z,27.23
2022-09-12T13:15:04.732Z,27.32
2022-09-12T13:17:41.470Z,27.26
2022-09-12T13:20:30.140Z,27.19
2022-09-12T13:22:57.641Z,27.25
2022-09-12T13:25:33.006Z,27.26
2022-09-12T13:28:02.260Z,27.33
2022-09-12T13:30:31.962Z,27.46
2022-09-12T13:33:08.465Z,27.41
2022-09-12T13:35:39.869Z,27.35
2022-09-12T13:38:26.228Z,27.20
2022-09-12T13:41:22.205Z,27.18
2022-09-12T13:43:49.353Z,27.17
2022-09-12T13:46:30.680Z,27.30
2022-09-12T13:49:00.623Z,27.27
2022-09-12T13:51:30.579Z,27.24
2022-09-12T13:54:02.782Z,27.28
2022-09-12T13:56:29.214Z,27.21
2022-09-12T13:59:00.911Z,27.12
2022-09-12T14:01:42.542Z,27.25
2022-09-12T14:04:45.146Z,27.36
2022-09-12T14:07:20.154Z,27.39
2022-09-12T14:09:54.118Z,27.39
2022-09-12T14:12:30.998Z,27.38
2022-09-12T14:14:57.481Z,27.37
2022-09-12T14:17:31.767Z,27.37
2022-09-12T14:20:05.342Z,27.28
2022-09-12T14:22:34.127Z,27.18
2022-09-12T14:25:01.913Z,27.24
2022-09-12T14:27:51.990Z,27.24
2022-09-12T14:30:37.770Z,27.39
2022-09-12T14:33:09.994Z,27.45
2022-09-12T14:36:18.209Z,27.50
2022-09-12T14:38:48.406Z,27.41
2022-09-12T14:41:24.037Z,27.43
2022-09-12T14:43:54.193Z,27.47
2022-09-12T14:46:30.703Z,27.51
2022-09-12T14:49:18.458Z,27.45
2022-09-12T14:51:51.480Z,27.37
2022-09-12T14:54:30.320Z,27.38
2022-09-12T14:57:39.826Z,27.33
2022-09-12T15:00:12.093Z,27.41
2022-09-12T15:02:40.232Z,27.40
2022-09-12T15:05:06.568Z,27.33
2022-09-12T15:07:35.205Z,27.42
2022-09-12T15:10:21.958Z,27.49
2022-09-12T15:12:49.148Z,27.56
2022-09-12T15:15:18.578Z,27.52
2022-09-12T15:17:45.177Z,27.47
2022-09-12T15:20:13.258Z,27.46
2022-09-12T15:22:41.288Z,27.49
2022-09-12T15:25:08.043Z,27.52
2022-09-12T15:27:34.452Z,27.47
2022-09-12T15:30:00.919Z,27.47
2022-09-12T15:32:29.698Z,27.47
2022-09-12T15:34:56.445Z,27.44
2022-09-12T15:37:24.157Z,27.46
2022-09-12T15:39:51.653Z,27.39
2022-09-12T15:42:26.707Z,27.40
2022-09-12T15:44:53.854Z,27.45
2022-09-12T15:47:20.369Z,27.36
2022-09-12T15:49:46.885Z,27.31
2022-09-12T15:52:15.730Z,27.32
2022-09-12T15:54:43.170Z,27.37
2022-09-12T15:57:09.961Z,27.31
2022-09-12T15:59:36.606Z,27.31
2022-09-12T16:02:03.235Z,27.26
2022-09-12T16:04:30.498Z,27.25
2022-09-12T16:06:57.011Z,27.25
2022-09-12T16:09:23.982Z,27.18
2022-09-12T16:11:50.585Z,27.19
2022-09-12T16:14:18.651Z,27.18
2022-09-12T16:16:51.070Z,27.18
2022-09-12T16:19:17.518Z,27.17
2022-09-12T16:21:44.036Z,27.16
2022-09-12T16:24:10.436Z,27.18
2022-09-12T16:26:36.837Z,27.12
2022-09-12T16:29:03.660Z,27.07
2022-09-12T16:31:30.947Z,27.09
2022-09-12T16:33:57.366Z,27.08
2022-09-12T16:36:24.540Z,27.04
2022-09-12T16:38:53.221Z,26.99
2022-09-12T16:41:27.430Z,26.98
2022-09-12T16:43:54.228Z,26.95
2022-09-12T16:46:26.453Z,26.91
2022-09-12T16:48:54.653Z,26.89
2022-09-12T16:51:24.742Z,26.86
2022-09-12T16:53:51.249Z,26.83
2022-09-12T16:56:18.566Z,26.80
2022-09-12T16:58:45.416Z,26.76
2022-09-12T17:01:17.914Z,26.69
2022-09-12T17:03:44.791Z,26.65
2022-09-12T17:06:13.681Z,26.61
2022-09-12T17:08:42.869Z,26.58
2022-09-12T17:11:15.570Z,26.53
2022-09-12T17:14:03.721Z,26.48
2022-09-12T17:16:33.046Z,26.40
2022-09-12T17:18:59.479Z,26.33
2022-09-12T17:21:26.072Z,26.28
2022-09-12T17:23:52.500Z,26.20
2022-09-12T17:26:18.982Z,26.12
2022-09-12T17:28:46.381Z,26.03
2022-09-12T17:31:14.614Z,25.98
2022-09-12T17:33:41.976Z,25.92
2022-09-12T17:36:15.292Z,25.85
2022-09-12T17:38:43.433Z,25.77
2022-09-12T17:41:11.372Z,25.70
2022-09-12T17:43:38.086Z,25.62
2022-09-12T17:46:05.186Z,25.55
2022-09-12T17:48:32.409Z,25.47
2022-09-12T17:50:59.295Z,25.39
2022-09-12T17:53:25.823Z,25.35
2022-09-12T17:55:54.366Z,25.27
2022-09-12T17:58:20.935Z,25.13
2022-09-12T18:01:05.792Z,25.03
2022-09-12T18:03:35.112Z,24.95
2022-09-12T18:06:01.524Z,24.91
2022-09-12T18:08:27.942Z,24.87
2022-09-12T18:10:54.387Z,24.88
2022-09-12T18:13:20.781Z,24.86
2022-09-12T18:15:47.183Z,24.86
2022-09-12T18:18:14.028Z,24.83
2022-09-12T18:20:50.029Z,24.82
2022-09-12T18:23:16.448Z,24.79
2022-09-12T18:25:42.839Z,24.74
2022-09-12T18:28:09.351Z,24.66
2022-09-12T18:30:35.809Z,24.35
2022-09-12T18:33:02.276Z,24.08
2022-09-12T18:35:28.667Z,23.91
2022-09-12T18:37:55.667Z,23.81
2022-09-12T18:40:22.154Z,23.74
2022-09-12T18:42:48.673Z,23.70
2022-09-12T18:45:15.220Z,23.63
2022-09-12T18:47:41.925Z,23.62
2022-09-12T18:50:09.068Z,23.64
2022-09-12T18:52:35.470Z,23.59
2022-09-12T18:55:01.872Z,23.52
2022-09-12T18:57:31.490Z,23.42
2022-09-12T18:59:59.561Z,23.37
2022-09-12T19:02:28.455Z,23.34
2022-09-12T19:04:54.866Z,23.30
2022-09-12T19:07:21.902Z,23.33
2022-09-12T19:09:48.329Z,23.34
2022-09-12T19:12:14.736Z,23.41
2022-09-12T19:14:41.217Z,23.39
2022-09-12T19:17:07.998Z,23.36
2022-09-12T19:19:37.639Z,23.39
2022-09-12T19:22:06.848Z,23.41
2022-09-12T19:24:33.807Z,23.49
2022-09-12T19:27:00.190Z,23.54
2022-09-12T19:29:26.660Z,23.54
2022-09-12T19:31:53.132Z,23.51
2022-09-12T19:34:19.521Z,23.48
2022-09-12T19:36:47.328Z,23.44
2022-09-12T19:39:16.185Z,23.41
2022-09-12T19:41:43.193Z,23.36
2022-09-12T19:44:09.639Z,23.34
2022-09-12T19:46:36.221Z,23.36
2022-09-12T19:49:03.319Z,23.41
2022-09-12T19:51:29.744Z,23.38
2022-09-12T19:53:56.167Z,23.37
2022-09-12T19:56:22.632Z,23.37
2022-09-12T19:58:55.829Z,23.37
2022-09-12T20:01:27.688Z,23.32
2022-09-12T20:03:54.266Z,23.31
2022-09-12T20:06:20.993Z,23.26
2022-09-12T20:08:47.611Z,23.25
2022-09-12T20:11:19.444Z,23.20
2022-09-12T20:13:46.103Z,23.16
2022-09-12T20:16:21.634Z,23.17
2022-09-12T20:18:54.464Z,23.16
2022-09-12T20:21:25.377Z,23.10
2022-09-12T20:23:52.243Z,23.10
2022-09-12T20:26:20.165Z,23.10
2022-09-12T20:28:46.675Z,23.05
2022-09-12T20:31:15.391Z,23.01
2022-09-12T20:33:42.641Z,22.98
2022-09-12T20:36:20.413Z,22.98
2022-09-12T20:38:52.689Z,23.00
2022-09-12T20:41:20.602Z,23.00
2022-09-12T20:43:54.467Z,23.00
2022-09-12T20:46:22.870Z,22.89
2022-09-12T20:48:50.761Z,22.83
2022-09-12T20:51:18.042Z,22.75
2022-09-12T20:53:44.441Z,22.67
2022-09-12T20:56:11.045Z,22.63
2022-09-12T20:58:40.493Z,22.64
2022-09-12T21:01:11.422Z,22.60
2022-09-12T21:03:39.239Z,22.54
2022-09-12T21:06:06.873Z,22.47
2022-09-12T21:08:34.017Z,22.43
2022-09-12T21:11:00.829Z,22.39
2022-09-12T21:13:27.345Z,22.39
2022-09-12T21:16:04.417Z,22.44
2022-09-12T21:18:32.025Z,22.44
2022-09-12T21:20:58.857Z,22.43
2022-09-12T21:23:26.850Z,22.23
2022-09-12T21:25:53.432Z,22.01
2022-09-12T21:28:20.683Z,21.90
2022-09-12T21:30:50.785Z,21.90
2022-09-12T21:33:19.061Z,21.98
2022-09-12T21:35:46.042Z,21.97
2022-09-12T21:38:12.774Z,21.93
2022-09-12T21:40:39.188Z,21.82
2022-09-12T21:43:09.212Z,21.77
2022-09-12T21:45:38.463Z,21.82
2022-09-12T21:48:05.030Z,21.81
2022-09-12T21:50:31.434Z,21.82
2022-09-12T21:52:57.876Z,21.85
2022-09-12T21:55:27.045Z,21.87
2022-09-12T21:57:54.716Z,21.79
2022-09-12T22:00:21.654Z,21.62
2022-09-12T22:02:48.694Z,21.58
2022-09-12T22:05:15.650Z,21.53
2022-09-12T22:07:42.208Z,21.46
2022-09-12T22:10:09.015Z,21.41
2022-09-12T22:12:35.426Z,21.48
2022-09-12T22:15:17.424Z,21.45
2022-09-12T22:17:48.196Z,21.38
2022-09-12T22:20:14.781Z,21.38
2022-09-12T22:22:59.993Z,21.33
2022-09-12T22:25:26.528Z,21.14
2022-09-12T22:27:54.372Z,21.13
2022-09-12T22:30:21.735Z,21.12
2022-09-12T22:32:49.907Z,21.16
2022-09-12T22:35:17.722Z,21.15
2022-09-12T22:37:44.556Z,21.19
2022-09-12T22:40:11.857Z,21.12
2022-09-12T22:42:38.657Z,21.10
2022-09-12T22:45:05.921Z,21.04
2022-09-12T22:47:32.335Z,20.96
2022-09-12T22:49:58.811Z,20.87
2022-09-12T22:52:25.209Z,20.85
2022-09-12T22:54:51.705Z,20.75
2022-09-12T22:57:18.189Z,20.62
2022-09-12T22:59:44.702Z,20.59
2022-09-12T23:02:11.097Z,20.59
2022-09-12T23:04:37.664Z,20.72
2022-09-12T23:07:04.156Z,20.83
2022-09-12T23:09:35.124Z,20.89
2022-09-12T23:12:02.047Z,20.93
2022-09-12T23:14:28.478Z,20.91
2022-09-12T23:16:54.912Z,20.78
2022-09-12T23:19:21.310Z,20.58
2022-09-12T23:21:47.708Z,20.47
2022-09-12T23:24:14.542Z,20.48
2022-09-12T23:26:40.932Z,20.60
2022-09-12T23:29:07.353Z,20.63
2022-09-12T23:31:34.150Z,20.63
2022-09-12T23:34:03.347Z,20.48
2022-09-12T23:36:30.185Z,20.37
2022-09-12T23:38:56.610Z,20.35
2022-09-12T23:41:24.020Z,20.21
2022-09-12T23:43:50.488Z,20.19
2022-09-12T23:46:18.168Z,20.29
2022-09-12T23:48:45.195Z,20.37
2022-09-12T23:51:12.311Z,20.49
2022-09-12T23:53:39.356Z,20.37
2022-09-12T23:56:06.517Z,20.31
2022-09-12T23:58:33.620Z,20.22
